createdAt,value
2023-02-14T00:00:16.598Z,56.10
2023-02-14T00:02:20.114Z,52.33
2023-02-14T00:04:23.511Z,55.00
2023-02-14T00:06:29.902Z,52.08
2023-02-14T00:08:33.381Z,55.10
2023-02-14T00:10:36.648Z,53.72
2023-02-14T00:12:39.913Z,52.33
2023-02-14T00:15:00.398Z,54.55
2023-02-14T00:17:03.833Z,51.47
2023-02-14T00:19:07.078Z,53.25
2023-02-14T00:21:10.266Z,55.03
2023-02-14T00:23:15.047Z,52.80
2023-02-14T00:25:18.478Z,53.75
2023-02-14T00:27:21.717Z,53.60
2023-02-14T00:29:27.725Z,55.50
2023-02-14T00:31:31.168Z,55.08
2023-02-14T00:33:34.472Z,62.22
2023-02-14T00:35:38.983Z,55.10
2023-02-14T00:37:42.297Z,61.15
2023-02-14T00:39:46.934Z,58.60
2023-02-14T00:41:50.120Z,51.40
2023-02-14T00:43:54.578Z,58.25
2023-02-14T00:45:58.066Z,53.22
2023-02-14T00:48:01.363Z,52.80
2023-02-14T00:50:05.146Z,56.05
2023-02-14T00:52:08.430Z,56.83
2023-02-14T00:54:11.628Z,56.38
2023-02-14T00:56:17.272Z,56.28
2023-02-14T00:58:20.512Z,53.80
2023-02-14T01:00:24.316Z,53.00
2023-02-14T01:02:32.226Z,53.90
2023-02-14T01:04:35.660Z,53.13
2023-02-14T01:06:39.110Z,56.80
2023-02-14T01:08:42.563Z,54.20
2023-02-14T01:10:46.057Z,53.90
2023-02-14T01:12:50.729Z,52.70
2023-02-14T01:14:54.014Z,55.70
2023-02-14T01:16:57.156Z,53.47
2023-02-14T01:19:02.083Z,55.40
2023-02-14T01:21:16.744Z,55.00
2023-02-14T01:24:14.331Z,56.50
2023-02-14T01:27:30.571Z,58.58
2023-02-14T01:29:53.794Z,53.80
2023-02-14T01:31:57.096Z,54.50
2023-02-14T01:34:01.976Z,54.13
2023-02-14T01:36:05.861Z,57.10
2023-02-14T01:38:09.168Z,53.85
2023-02-14T01:40:14.614Z,58.30
2023-02-14T01:42:19.668Z,56.33
2023-02-14T01:45:03.322Z,55.85
2023-02-14T01:47:11.428Z,56.78
2023-02-14T01:49:18.387Z,59.40
2023-02-14T01:51:22.543Z,56.53
2023-02-14T01:53:30.022Z,56.05
2023-02-14T01:55:38.019Z,60.40
2023-02-14T01:57:46.231Z,55.83
2023-02-14T01:59:54.134Z,53.55
2023-02-14T02:01:59.133Z,58.30
2023-02-14T02:04:08.832Z,56.22
2023-02-14T02:06:16.416Z,52.83
2023-02-14T02:08:20.636Z,62.03
2023-02-14T02:10:24.408Z,56.95
2023-02-14T02:12:30.811Z,56.47
2023-02-14T02:14:36.070Z,56.40
2023-02-14T02:16:55.671Z,53.15
2023-02-14T02:19:22.813Z,54.88
2023-02-14T02:21:59.884Z,60.00
2023-02-14T02:24:16.781Z,59.13
2023-02-14T02:26:50.506Z,55.72
2023-02-14T02:29:21.881Z,58.63
2023-02-14T02:31:44.390Z,58.55
2023-02-14T02:34:17.498Z,59.00
2023-02-14T02:36:48.851Z,53.08
2023-02-14T02:39:17.169Z,56.58
2023-02-14T02:41:32.284Z,57.88
2023-02-14T02:43:45.292Z,59.00
2023-02-14T02:46:09.526Z,58.90
2023-02-14T02:48:23.182Z,54.13
2023-02-14T02:50:48.721Z,57.83
2023-02-14T02:53:03.314Z,54.88
2023-02-14T02:55:14.509Z,55.42
2023-02-14T02:57:22.775Z,54.38
2023-02-14T02:59:30.255Z,56.13
2023-02-14T03:01:39.353Z,60.63
2023-02-14T03:04:04.965Z,53.90
2023-02-14T03:06:08.649Z,55.67
2023-02-14T03:08:13.306Z,60.30
2023-02-14T03:10:18.810Z,59.22
2023-02-14T03:12:41.408Z,56.22
2023-02-14T03:14:51.363Z,57.03
2023-02-14T03:17:06.975Z,57.05
2023-02-14T03:19:59.865Z,59.55
2023-02-14T03:22:15.702Z,53.42
2023-02-14T03:24:28.673Z,57.47
2023-02-14T03:26:39.100Z,55.80
2023-02-14T03:28:48.427Z,58.63
2023-02-14T03:31:00.696Z,57.53
2023-02-14T03:33:07.728Z,58.28
2023-02-14T03:35:20.841Z,57.63
2023-02-14T03:37:30.148Z,54.92
2023-02-14T03:39:42.371Z,55.97
2023-02-14T03:41:50.292Z,57.58
2023-02-14T03:43:57.760Z,58.85
2023-02-14T03:46:07.847Z,57.47
2023-02-14T03:48:13.987Z,60.33
2023-02-14T03:50:20.102Z,60.08
2023-02-14T03:52:26.332Z,53.65
2023-02-14T03:54:32.535Z,60.17
2023-02-14T03:56:41.236Z,60.58
2023-02-14T03:58:48.977Z,57.13
2023-02-14T04:00:58.261Z,58.05
2023-02-14T04:03:05.965Z,59.78
2023-02-14T04:05:14.312Z,57.40
2023-02-14T04:07:19.844Z,59.08
2023-02-14T04:09:22.988Z,55.30
2023-02-14T04:11:26.226Z,60.03
2023-02-14T04:13:30.849Z,57.80
2023-02-14T04:15:34.180Z,54.30
2023-02-14T04:17:55.052Z,57.90
2023-02-14T04:19:58.279Z,65.10
2023-02-14T04:22:01.443Z,55.47
2023-02-14T04:24:04.936Z,59.72
2023-02-14T04:26:08.165Z,57.63
2023-02-14T04:28:11.312Z,60.10
2023-02-14T04:30:18.085Z,60.78
2023-02-14T04:32:23.348Z,59.90
2023-02-14T04:34:26.792Z,61.25
2023-02-14T04:36:29.972Z,59.95
2023-02-14T04:38:33.928Z,61.95
2023-02-14T04:40:37.173Z,60.95
2023-02-14T04:42:40.348Z,60.35
2023-02-14T04:44:43.604Z,57.28
2023-02-14T04:46:48.188Z,59.17
2023-02-14T04:48:51.431Z,62.85
2023-02-14T04:50:55.340Z,56.95
2023-02-14T04:52:58.529Z,62.67
2023-02-14T04:55:01.642Z,57.03
2023-02-14T04:57:04.897Z,59.75
2023-02-14T04:59:08.134Z,60.60
2023-02-14T05:01:11.277Z,60.22
2023-02-14T05:03:15.839Z,57.00
2023-02-14T05:05:19.332Z,58.60
2023-02-14T05:07:22.494Z,65.28
2023-02-14T05:09:25.776Z,64.22
2023-02-14T05:11:29.367Z,62.40
2023-02-14T05:13:33.056Z,66.18
2023-02-14T05:15:38.392Z,63.45
2023-02-14T05:17:41.985Z,66.47
2023-02-14T05:19:46.588Z,62.10
2023-02-14T05:21:49.786Z,61.55
2023-02-14T05:23:52.914Z,62.80
2023-02-14T05:25:56.136Z,62.30
2023-02-14T05:27:59.565Z,66.85
2023-02-14T05:30:02.909Z,64.05
2023-02-14T05:32:06.560Z,63.88
2023-02-14T05:34:09.782Z,64.57
2023-02-14T05:36:14.506Z,65.50
2023-02-14T05:38:17.937Z,63.53
2023-02-14T05:40:21.374Z,60.92
2023-02-14T05:42:24.594Z,72.93
2023-02-14T05:44:27.913Z,59.70
2023-02-14T05:46:31.080Z,59.03
2023-02-14T05:48:35.088Z,62.65
2023-02-14T05:50:38.336Z,66.05
2023-02-14T05:52:43.395Z,64.13
2023-02-14T05:54:46.596Z,65.30
2023-02-14T05:56:49.787Z,63.63
2023-02-14T05:58:53.036Z,64.85
2023-02-14T06:00:57.853Z,62.88
2023-02-14T06:03:01.312Z,66.95
2023-02-14T06:05:04.443Z,66.05
2023-02-14T06:07:07.599Z,64.22
2023-02-14T06:09:12.182Z,64.75
2023-02-14T06:11:15.343Z,63.80
2023-02-14T06:13:18.526Z,67.80
2023-02-14T06:15:22.463Z,66.63
2023-02-14T06:17:25.664Z,67.70
2023-02-14T06:19:28.973Z,62.05
2023-02-14T06:21:32.447Z,64.47
2023-02-14T06:23:35.675Z,65.43
2023-02-14T06:25:40.207Z,70.97
2023-02-14T06:27:43.453Z,70.43
2023-02-14T06:29:46.809Z,63.38
2023-02-14T06:31:50.206Z,68.75
2023-02-14T06:33:54.019Z,66.88
2023-02-14T06:35:57.220Z,65.95
2023-02-14T06:38:00.374Z,66.60
2023-02-14T06:40:03.919Z,68.10
2023-02-14T06:42:08.722Z,66.32
2023-02-14T06:44:11.996Z,64.68
2023-02-14T06:46:15.333Z,63.63
2023-02-14T06:48:18.548Z,65.63
2023-02-14T06:50:21.731Z,66.65
2023-02-14T06:52:24.910Z,63.13
2023-02-14T06:54:28.126Z,64.90
2023-02-14T06:56:31.293Z,66.25
2023-02-14T06:58:36.235Z,60.85
2023-02-14T07:00:39.825Z,62.15
2023-02-14T07:02:43.528Z,67.18
2023-02-14T07:04:46.868Z,63.40
2023-02-14T07:06:50.064Z,60.22
2023-02-14T07:08:53.332Z,62.10
2023-02-14T07:10:58.236Z,61.15
2023-02-14T07:13:02.035Z,62.03
2023-02-14T07:15:07.421Z,64.38
2023-02-14T07:17:10.739Z,62.17
2023-02-14T07:19:14.205Z,64.18
2023-02-14T07:21:17.563Z,62.38
2023-02-14T07:23:20.855Z,63.38
2023-02-14T07:25:23.996Z,64.93
2023-02-14T07:27:27.369Z,65.28
2023-02-14T07:29:30.565Z,58.88
2023-02-14T07:31:35.196Z,62.60
2023-02-14T07:33:38.497Z,62.35
2023-02-14T07:35:41.708Z,59.47
2023-02-14T07:37:44.879Z,63.70
2023-02-14T07:39:48.135Z,60.45
2023-02-14T07:41:51.577Z,60.22
2023-02-14T07:43:56.093Z,60.25
2023-02-14T07:46:00.836Z,65.18
2023-02-14T07:48:05.993Z,62.13
2023-02-14T07:50:09.716Z,60.78
2023-02-14T07:52:12.909Z,60.50
2023-02-14T07:54:16.066Z,60.95
2023-02-14T07:56:19.277Z,60.15
2023-02-14T07:58:22.559Z,59.05
2023-02-14T08:00:25.794Z,59.95
2023-02-14T08:02:29.234Z,59.28
2023-02-14T08:04:34.140Z,63.45
2023-02-14T08:06:37.377Z,55.15
2023-02-14T08:08:40.840Z,58.55
2023-02-14T08:10:44.078Z,47.42
2023-02-14T08:13:01.406Z,41.92
2023-02-14T08:15:18.911Z,48.75
2023-02-14T08:17:22.057Z,50.60
2023-02-14T08:19:25.301Z,40.00
2023-02-14T08:21:29.989Z,40.28
2023-02-14T08:23:33.373Z,37.22
2023-02-14T08:25:36.584Z,36.08
2023-02-14T08:27:40.237Z,36.35
2023-02-14T08:29:43.359Z,41.38
2023-02-14T08:31:47.435Z,35.95
2023-02-14T08:33:50.764Z,40.58
2023-02-14T08:35:54.129Z,35.88
2023-02-14T08:37:58.751Z,36.72
2023-02-14T08:40:02.041Z,37.13
2023-02-14T08:42:05.549Z,38.67
2023-02-14T08:44:08.798Z,37.00
2023-02-14T08:46:13.104Z,35.72
2023-02-14T08:48:16.396Z,37.03
2023-02-14T08:50:20.503Z,36.60
2023-02-14T08:52:23.732Z,36.72
2023-02-14T08:54:28.392Z,36.53
2023-02-14T08:56:31.593Z,37.45
2023-02-14T08:58:35.901Z,37.20
2023-02-14T09:00:39.748Z,36.60
2023-02-14T09:02:43.169Z,35.65
2023-02-14T09:04:46.661Z,35.22
2023-02-14T09:06:49.900Z,39.17
2023-02-14T09:08:55.150Z,35.03
2023-02-14T09:11:00.213Z,37.33
2023-02-14T09:13:04.248Z,39.50
2023-02-14T09:15:08.324Z,38.22
2023-02-14T09:17:12.991Z,33.78
2023-02-14T09:19:16.125Z,35.03
2023-02-14T09:21:21.425Z,37.35
2023-02-14T09:23:24.902Z,37.38
2023-02-14T09:25:28.130Z,34.53
2023-02-14T09:27:32.769Z,37.22
2023-02-14T09:29:36.040Z,32.80
2023-02-14T09:31:39.929Z,38.08
2023-02-14T09:33:44.491Z,39.95
2023-02-14T09:35:47.664Z,37.97
2023-02-14T09:38:08.253Z,40.72
2023-02-14T09:40:14.792Z,35.08
2023-02-14T09:42:41.163Z,37.88
2023-02-14T09:44:53.980Z,40.45
2023-02-14T09:47:02.396Z,37.58
2023-02-14T09:49:12.376Z,37.42
2023-02-14T09:51:22.809Z,36.00
2023-02-14T09:53:30.485Z,36.88
2023-02-14T09:55:40.548Z,33.05
2023-02-14T09:58:05.773Z,35.83
2023-02-14T10:00:19.014Z,33.85
2023-02-14T10:02:40.564Z,35.10
2023-02-14T10:04:56.947Z,37.88
2023-02-14T10:07:09.393Z,38.42
2023-02-14T10:09:23.645Z,39.65
2023-02-14T10:11:26.952Z,37.10
2023-02-14T10:13:36.685Z,40.92
2023-02-14T10:15:44.141Z,37.67
2023-02-14T10:17:52.548Z,37.22
2023-02-14T10:20:01.002Z,38.55
2023-02-14T10:22:09.182Z,37.13
2023-02-14T10:24:17.817Z,45.20
2023-02-14T10:26:27.313Z,40.28
2023-02-14T10:28:38.381Z,37.50
2023-02-14T10:30:51.089Z,40.42
2023-02-14T10:33:04.485Z,37.60
2023-02-14T10:35:17.518Z,36.47
2023-02-14T10:37:33.798Z,35.95
2023-02-14T10:39:59.826Z,35.97
2023-02-14T10:42:12.991Z,38.03
2023-02-14T10:44:31.702Z,33.67
2023-02-14T10:46:41.985Z,35.38
2023-02-14T10:48:53.104Z,37.08
2023-02-14T10:51:03.109Z,38.47
2023-02-14T10:53:17.147Z,36.35
2023-02-14T10:55:32.370Z,36.80
2023-02-14T10:57:39.542Z,38.28
2023-02-14T10:59:50.710Z,39.13
2023-02-14T11:01:56.340Z,37.67
2023-02-14T11:04:06.626Z,37.65
2023-02-14T11:06:11.402Z,36.90
2023-02-14T11:08:23.414Z,36.83
2023-02-14T11:10:31.190Z,35.70
2023-02-14T11:12:39.372Z,36.67
2023-02-14T11:14:43.710Z,37.85
2023-02-14T11:16:51.863Z,49.78
2023-02-14T11:19:10.395Z,35.83
2023-02-14T11:21:17.807Z,40.05
2023-02-14T11:23:22.687Z,35.22
2023-02-14T11:25:28.133Z,40.78
2023-02-14T11:27:32.483Z,39.60
2023-02-14T11:29:44.965Z,40.33
2023-02-14T11:31:50.200Z,38.85
2023-02-14T11:33:54.451Z,41.88
2023-02-14T11:35:59.260Z,41.65
2023-02-14T11:38:05.154Z,34.55
2023-02-14T11:40:24.975Z,38.92
2023-02-14T11:42:38.931Z,39.35
2023-02-14T11:44:58.640Z,36.78
2023-02-14T11:47:26.977Z,39.15
2023-02-14T11:49:33.360Z,44.65
2023-02-14T11:51:40.319Z,39.10
2023-02-14T11:53:47.445Z,39.70
2023-02-14T11:55:56.070Z,41.55
2023-02-14T11:58:00.073Z,35.25
2023-02-14T12:00:13.319Z,40.17
2023-02-14T12:02:28.315Z,40.70
2023-02-14T12:04:45.648Z,42.88
2023-02-14T12:06:49.829Z,34.83
2023-02-14T12:08:53.242Z,40.33
2023-02-14T12:11:03.813Z,38.53
2023-02-14T12:13:25.718Z,39.10
2023-02-14T12:15:37.025Z,38.65
2023-02-14T12:17:46.916Z,40.35
2023-02-14T12:19:53.110Z,38.97
2023-02-14T12:22:01.299Z,35.35
2023-02-14T12:24:13.770Z,41.50
2023-02-14T12:26:27.493Z,37.25
2023-02-14T12:28:38.556Z,37.22
2023-02-14T12:30:42.550Z,36.45
2023-02-14T12:32:50.535Z,39.60
2023-02-14T12:34:59.870Z,37.35
2023-02-14T12:37:30.647Z,35.88
2023-02-14T12:39:39.337Z,37.53
2023-02-14T12:41:50.447Z,38.85
2023-02-14T12:43:56.041Z,37.10
2023-02-14T12:46:12.927Z,39.85
2023-02-14T12:48:28.899Z,42.40
2023-02-14T12:50:43.300Z,38.65
2023-02-14T12:53:26.557Z,38.53
2023-02-14T12:55:42.495Z,37.55
2023-02-14T12:57:52.400Z,39.10
2023-02-14T13:00:04.602Z,41.30
2023-02-14T13:02:56.257Z,41.63
2023-02-14T13:05:06.971Z,36.08
2023-02-14T13:07:20.131Z,36.28
2023-02-14T13:09:36.102Z,35.83
2023-02-14T13:11:48.511Z,36.60
2023-02-14T13:14:04.572Z,35.40
2023-02-14T13:16:16.727Z,38.20
2023-02-14T13:18:35.614Z,36.67
2023-02-14T13:20:50.446Z,37.70
2023-02-14T13:22:56.909Z,42.85
2023-02-14T13:25:04.790Z,37.45
2023-02-14T13:27:13.674Z,38.25
2023-02-14T13:29:20.640Z,33.42
2023-02-14T13:31:24.559Z,36.13
2023-02-14T13:33:34.908Z,35.90
2023-02-14T13:35:39.123Z,34.28
2023-02-14T13:37:51.222Z,32.35
2023-02-14T13:39:57.831Z,33.72
2023-02-14T13:42:01.597Z,32.17
2023-02-14T13:44:05.505Z,32.17
2023-02-14T13:46:09.016Z,33.42
2023-02-14T13:48:14.430Z,32.63
2023-02-14T13:50:22.904Z,34.67
2023-02-14T13:52:46.118Z,32.40
2023-02-14T13:54:50.116Z,33.63
2023-02-14T13:56:53.709Z,32.63
2023-02-14T13:59:00.366Z,32.88
2023-02-14T14:01:33.058Z,33.78
2023-02-14T14:03:57.687Z,36.20
2023-02-14T14:06:08.328Z,36.08
2023-02-14T14:08:42.403Z,32.77
2023-02-14T14:10:47.034Z,33.58
2023-02-14T14:12:52.202Z,33.45
2023-02-14T14:15:13.237Z,33.53
2023-02-14T14:17:21.895Z,35.35
2023-02-14T14:19:39.882Z,30.23
2023-02-14T14:21:44.813Z,35.45
2023-02-14T14:24:06.236Z,31.55
2023-02-14T14:26:35.264Z,35.38
2023-02-14T14:28:38.756Z,34.30
2023-02-14T14:30:45.613Z,32.50
2023-02-14T14:32:49.042Z,33.25
2023-02-14T14:34:54.060Z,34.75
2023-02-14T14:37:04.154Z,34.42
2023-02-14T14:39:11.243Z,30.10
2023-02-14T14:41:14.695Z,30.38
2023-02-14T14:43:23.100Z,31.60
2023-02-14T14:45:28.327Z,32.03
2023-02-14T14:47:38.812Z,30.88
2023-02-14T14:49:42.280Z,31.48
2023-02-14T14:51:46.607Z,35.63
2023-02-14T14:53:53.808Z,31.13
2023-02-14T14:55:59.310Z,31.17
2023-02-14T14:58:05.011Z,33.35
2023-02-14T15:00:28.674Z,33.50
2023-02-14T15:02:32.159Z,34.63
2023-02-14T15:04:36.583Z,39.47
2023-02-14T15:06:41.033Z,35.50
2023-02-14T15:08:44.676Z,33.67
2023-02-14T15:10:52.411Z,33.10
2023-02-14T15:13:17.057Z,34.92
2023-02-14T15:15:20.554Z,32.75
2023-02-14T15:17:27.737Z,32.55
2023-02-14T15:19:37.140Z,36.45
2023-02-14T15:21:44.635Z,32.90
2023-02-14T15:23:48.927Z,32.50
2023-02-14T15:25:53.706Z,32.63
2023-02-14T15:27:58.597Z,33.58
2023-02-14T15:30:06.713Z,34.63
2023-02-14T15:32:12.005Z,30.42
2023-02-14T15:34:15.864Z,33.45
2023-02-14T15:36:25.259Z,31.63
2023-02-14T15:38:29.403Z,32.00
2023-02-14T15:40:36.387Z,34.53
2023-02-14T15:42:42.374Z,34.60
2023-02-14T15:44:47.104Z,31.75
2023-02-14T15:46:55.337Z,30.70
2023-02-14T15:49:01.595Z,28.98
2023-02-14T15:51:06.468Z,33.22
2023-02-14T15:53:27.774Z,31.55
2023-02-14T15:55:33.433Z,36.47
2023-02-14T15:57:38.431Z,32.20
2023-02-14T15:59:43.568Z,29.95
2023-02-14T16:01:54.500Z,32.83
2023-02-14T16:04:00.706Z,31.50
2023-02-14T16:06:05.304Z,33.42
2023-02-14T16:08:27.788Z,33.90
2023-02-14T16:10:32.792Z,32.33
2023-02-14T16:12:38.190Z,31.85
2023-02-14T16:14:45.764Z,38.40
2023-02-14T16:17:02.026Z,36.40
2023-02-14T16:19:06.629Z,38.17
2023-02-14T16:21:15.566Z,32.42
2023-02-14T16:23:23.163Z,33.92
2023-02-14T16:25:26.626Z,37.13
2023-02-14T16:27:30.019Z,40.42
2023-02-14T16:29:33.907Z,37.95
2023-02-14T16:31:39.917Z,36.35
2023-02-14T16:33:45.029Z,42.08
2023-02-14T16:35:49.378Z,38.60
2023-02-14T16:37:53.560Z,38.92
2023-02-14T16:39:57.845Z,37.53
2023-02-14T16:42:01.360Z,36.72
2023-02-14T16:44:07.043Z,45.78
2023-02-14T16:46:12.684Z,40.08
2023-02-14T16:48:16.960Z,39.88
2023-02-14T16:50:22.834Z,40.88
2023-02-14T16:52:28.286Z,40.03
2023-02-14T16:54:32.577Z,38.97
2023-02-14T16:56:40.674Z,42.95
2023-02-14T16:58:44.543Z,44.15
2023-02-14T17:00:47.900Z,39.47
2023-02-14T17:02:51.551Z,44.95
2023-02-14T17:04:55.370Z,40.10
2023-02-14T17:07:05.876Z,42.00
2023-02-14T17:09:13.741Z,45.70
2023-02-14T17:11:17.320Z,49.33
2023-02-14T17:13:25.241Z,43.65
2023-02-14T17:15:30.224Z,42.42
2023-02-14T17:17:35.106Z,42.03
2023-02-14T17:19:38.831Z,43.17
2023-02-14T17:21:43.915Z,42.65
2023-02-14T17:23:48.946Z,41.58
2023-02-14T17:25:52.519Z,38.38
2023-02-14T17:27:56.532Z,43.22
2023-02-14T17:29:59.980Z,42.08
2023-02-14T17:32:07.165Z,39.47
2023-02-14T17:34:11.138Z,42.08
2023-02-14T17:36:15.790Z,41.03
2023-02-14T17:38:21.627Z,43.80
2023-02-14T17:40:26.456Z,42.97
2023-02-14T17:42:31.800Z,43.63
2023-02-14T17:44:36.031Z,41.65
2023-02-14T17:46:39.622Z,43.80
2023-02-14T17:48:45.514Z,42.92
2023-02-14T17:50:48.945Z,43.00
2023-02-14T17:52:55.522Z,41.22
2023-02-14T17:54:59.112Z,45.10
2023-02-14T17:57:04.660Z,43.55
2023-02-14T17:59:08.014Z,41.97
2023-02-14T18:01:13.265Z,40.72
2023-02-14T18:03:20.374Z,42.53
2023-02-14T18:05:24.213Z,45.85
2023-02-14T18:07:27.689Z,48.35
2023-02-14T18:09:31.291Z,43.97
2023-02-14T18:11:34.730Z,45.67
2023-02-14T18:13:40.080Z,45.42
2023-02-14T18:15:43.499Z,45.65
2023-02-14T18:17:50.769Z,49.28
2023-02-14T18:19:54.263Z,47.30
2023-02-14T18:21:58.169Z,42.83
2023-02-14T18:24:03.091Z,52.72
2023-02-14T18:26:08.455Z,46.78
2023-02-14T18:28:11.846Z,45.47
2023-02-14T18:30:17.236Z,42.17
2023-02-14T18:32:20.784Z,48.72
2023-02-14T18:34:24.441Z,47.30
2023-02-14T18:36:28.535Z,47.90
2023-02-14T18:38:31.874Z,51.92
2023-02-14T18:40:35.784Z,47.28
2023-02-14T18:42:39.206Z,44.97
2023-02-14T18:44:42.585Z,47.15
2023-02-14T18:46:47.391Z,47.78
2023-02-14T18:48:51.517Z,54.13
2023-02-14T18:50:54.892Z,50.33
2023-02-14T18:52:58.301Z,49.80
2023-02-14T18:55:01.713Z,49.72
2023-02-14T18:57:05.164Z,48.28
2023-02-14T18:59:10.421Z,45.85
2023-02-14T19:01:15.658Z,49.20
2023-02-14T19:03:20.504Z,49.67
2023-02-14T19:05:26.197Z,49.65
2023-02-14T19:07:29.709Z,48.53
2023-02-14T19:09:39.063Z,51.22
2023-02-14T19:11:42.752Z,51.35
2023-02-14T19:13:46.857Z,48.30
2023-02-14T19:15:50.961Z,47.22
2023-02-14T19:17:54.814Z,48.30
2023-02-14T19:19:59.868Z,47.22
2023-02-14T19:22:03.472Z,47.33
2023-02-14T19:24:08.734Z,47.33
2023-02-14T19:26:14.684Z,46.83
2023-02-14T19:28:19.371Z,44.95
2023-02-14T19:30:22.918Z,45.40
2023-02-14T19:32:26.766Z,49.90
2023-02-14T19:34:31.610Z,44.47
2023-02-14T19:36:37.651Z,45.28
2023-02-14T19:38:42.703Z,47.97
2023-02-14T19:40:46.294Z,47.90
2023-02-14T19:42:50.288Z,50.90
2023-02-14T19:44:54.217Z,50.13
2023-02-14T19:47:00.184Z,46.03
2023-02-14T19:49:04.399Z,49.45
2023-02-14T19:51:08.380Z,48.78
2023-02-14T19:53:13.220Z,46.83
2023-02-14T19:55:23.474Z,48.80
2023-02-14T19:57:27.415Z,48.95
2023-02-14T19:59:32.592Z,53.50
2023-02-14T20:01:38.055Z,49.40
2023-02-14T20:03:42.193Z,50.45
2023-02-14T20:05:45.581Z,53.88
2023-02-14T20:07:52.023Z,53.00
2023-02-14T20:09:56.811Z,52.05
2023-02-14T20:12:01.529Z,52.47
2023-02-14T20:14:05.407Z,50.25
2023-02-14T20:16:11.941Z,53.75
2023-02-14T20:18:16.195Z,55.03
2023-02-14T20:20:21.578Z,55.28
2023-02-14T20:22:25.765Z,48.63
2023-02-14T20:24:30.650Z,56.58
2023-02-14T20:26:37.268Z,54.20
2023-02-14T20:28:40.692Z,51.75
2023-02-14T20:30:44.192Z,59.20
2023-02-14T20:32:47.626Z,53.08
2023-02-14T20:34:51.960Z,56.70
2023-02-14T20:36:56.069Z,60.88
2023-02-14T20:39:00.722Z,57.50
2023-02-14T20:41:05.736Z,56.15
2023-02-14T20:43:10.680Z,53.88
2023-02-14T20:45:14.065Z,55.72
2023-02-14T20:47:18.249Z,56.17
2023-02-14T20:49:23.322Z,63.22
2023-02-14T20:51:27.403Z,57.17
2023-02-14T20:53:30.753Z,58.13
2023-02-14T20:55:34.143Z,59.65
2023-02-14T20:57:38.606Z,58.78
2023-02-14T20:59:45.367Z,58.58
2023-02-14T21:01:48.755Z,63.47
2023-02-14T21:03:53.588Z,58.80
2023-02-14T21:05:57.557Z,61.58
2023-02-14T21:08:00.985Z,61.03
2023-02-14T21:10:04.512Z,59.50
2023-02-14T21:12:08.842Z,63.42
2023-02-14T21:14:12.295Z,64.97
2023-02-14T21:16:18.739Z,63.60
2023-02-14T21:18:22.582Z,61.17
2023-02-14T21:20:25.961Z,62.00
2023-02-14T21:22:29.381Z,62.15
2023-02-14T21:24:32.878Z,64.72
2023-02-14T21:26:36.621Z,62.22
2023-02-14T21:28:40.006Z,62.28
2023-02-14T21:30:43.522Z,59.80
2023-02-14T21:32:48.376Z,60.05
2023-02-14T21:34:51.812Z,62.92
2023-02-14T21:36:56.402Z,58.63
2023-02-14T21:39:01.144Z,59.67
2023-02-14T21:41:07.031Z,63.33
2023-02-14T21:43:10.489Z,61.38
2023-02-14T21:45:46.628Z,58.22
2023-02-14T21:48:05.247Z,58.80
2023-02-14T21:50:41.755Z,59.67
2023-02-14T21:52:45.270Z,60.47
2023-02-14T21:54:48.959Z,62.97
2023-02-14T21:56:52.623Z,63.58
2023-02-14T21:58:57.100Z,65.05
2023-02-14T22:01:00.940Z,64.80
2023-02-14T22:03:06.139Z,64.70
2023-02-14T22:05:09.790Z,64.82
2023-02-14T22:07:13.275Z,66.13
2023-02-14T22:09:18.755Z,70.88
2023-02-14T22:11:23.116Z,73.90
2023-02-14T22:13:27.033Z,62.92
2023-02-14T22:15:30.535Z,65.43
2023-02-14T22:17:34.436Z,74.70
2023-02-14T22:19:39.323Z,66.75
2023-02-14T22:21:44.324Z,66.47
2023-02-14T22:23:48.204Z,72.10
2023-02-14T22:25:51.657Z,65.72
2023-02-14T22:27:55.270Z,72.68
2023-02-14T22:29:58.717Z,74.30
2023-02-14T22:32:02.370Z,68.85
2023-02-14T22:34:06.225Z,74.40
2023-02-14T22:36:11.685Z,80.72
2023-02-14T22:38:15.236Z,85.82
2023-02-14T22:40:19.021Z,80.15
2023-02-14T22:42:22.501Z,81.05
2023-02-14T22:44:26.109Z,83.38
2023-02-14T22:46:30.097Z,88.50
2023-02-14T22:48:34.485Z,87.25
2023-02-14T22:50:38.006Z,93.18
2023-02-14T22:52:42.821Z,91.03
2023-02-14T22:54:46.279Z,97.72
2023-02-14T22:56:51.624Z,97.57
2023-02-14T22:58:56.646Z,107.38
2023-02-14T23:01:00.110Z,107.57
2023-02-14T23:03:03.687Z,101.30
2023-02-14T23:05:07.598Z,100.13
2023-02-14T23:07:12.066Z,105.82
2023-02-14T23:09:17.683Z,102.15
2023-02-14T23:11:22.944Z,116.78
2023-02-14T23:13:49.300Z,111.63
2023-02-14T23:16:11.836Z,105.57
2023-02-14T23:18:32.798Z,110.95
2023-02-14T23:20:53.899Z,104.32
2023-02-14T23:22:57.364Z,114.97
2023-02-14T23:25:04.536Z,110.53
2023-02-14T23:27:08.919Z,104.70
2023-02-14T23:29:12.337Z,111.70
2023-02-14T23:31:15.945Z,104.22
2023-02-14T23:33:19.886Z,110.57
2023-02-14T23:35:23.364Z,102.13
2023-02-14T23:37:26.983Z,119.90
2023-02-14T23:39:32.673Z,130.15
2023-02-14T23:41:48.809Z,150.13
2023-02-14T23:43:52.277Z,169.20
2023-02-14T23:45:55.802Z,140.38
2023-02-14T23:48:03.316Z,154.68
2023-02-14T23:50:07.824Z,135.93
2023-02-14T23:52:13.235Z,140.73
2023-02-14T23:54:17.175Z,135.27
2023-02-14T23:56:20.848Z,115.85
2023-02-14T23:58:25.750Z,147.15
